sensor_id;sensor_type;location;lat;lon;timestamp;pressure;altitude;pressure_sealevel;temperature;humidity
73457;BME280;61691;53.072;6.582;2023-04-07T00:00:23;101415.50;;;7.76;80.55
73457;BME280;61691;53.072;6.582;2023-04-07T00:02:50;101407.06;;;7.71;80.72
73457;BME280;61691;53.072;6.582;2023-04-07T00:05:17;101428.00;;;7.87;80.46
73457;BME280;61691;53.072;6.582;2023-04-07T00:07:44;101424.09;;;7.80;81.18
73457;BME280;61691;53.072;6.582;2023-04-07T00:10:22;101427.56;;;7.80;80.58
73457;BME280;61691;53.072;6.582;2023-04-07T00:12:49;101427.56;;;7.80;81.00
73457;BME280;61691;53.072;6.582;2023-04-07T00:15:16;101405.56;;;7.67;81.09
73457;BME280;61691;53.072;6.582;2023-04-07T00:17:43;101403.47;;;7.72;80.73
73457;BME280;61691;53.072;6.582;2023-04-07T00:20:10;101414.28;;;7.82;80.76
73457;BME280;61691;53.072;6.582;2023-04-07T00:22:36;101421.69;;;7.89;80.87
73457;BME280;61691;53.072;6.582;2023-04-07T00:25:03;101423.56;;;7.87;80.76
73457;BME280;61691;53.072;6.582;2023-04-07T00:27:30;101431.78;;;7.83;81.13
73457;BME280;61691;53.072;6.582;2023-04-07T00:29:57;101431.41;;;7.89;80.96
73457;BME280;61691;53.072;6.582;2023-04-07T00:32:24;101395.22;;;7.64;80.78
73457;BME280;61691;53.072;6.582;2023-04-07T00:34:50;101426.31;;;7.86;81.58
73457;BME280;61691;53.072;6.582;2023-04-07T00:37:17;101408.16;;;7.81;81.29
73457;BME280;61691;53.072;6.582;2023-04-07T00:39:44;101429.59;;;7.89;81.40
73457;BME280;61691;53.072;6.582;2023-04-07T00:42:12;101410.03;;;7.79;80.99
73457;BME280;61691;53.072;6.582;2023-04-07T00:44:39;101432.78;;;7.94;81.03
73457;BME280;61691;53.072;6.582;2023-04-07T00:47:05;101366.06;;;7.53;81.35
73457;BME280;61691;53.072;6.582;2023-04-07T00:49:32;101414.06;;;7.85;81.19
73457;BME280;61691;53.072;6.582;2023-04-07T00:51:59;101409.09;;;7.80;81.54
73457;BME280;61691;53.072;6.582;2023-04-07T00:54:27;101383.63;;;7.66;81.19
73457;BME280;61691;53.072;6.582;2023-04-07T00:56:55;101413.63;;;7.78;81.48
73457;BME280;61691;53.072;6.582;2023-04-07T00:59:24;101437.53;;;7.89;81.39
73457;BME280;61691;53.072;6.582;2023-04-07T01:02:13;101432.75;;;7.82;82.18
73457;BME280;61691;53.072;6.582;2023-04-07T01:05:09;101428.28;;;7.82;81.95
73457;BME280;61691;53.072;6.582;2023-04-07T01:10:19;101413.81;;;7.75;81.54
73457;BME280;61691;53.072;6.582;2023-04-07T01:12:59;101428.00;;;7.87;82.01
73457;BME280;61691;53.072;6.582;2023-04-07T01:15:29;101420.38;;;7.82;81.71
73457;BME280;61691;53.072;6.582;2023-04-07T01:18:22;101421.22;;;7.83;82.02
73457;BME280;61691;53.072;6.582;2023-04-07T01:20:50;101418.16;;;7.76;82.23
73457;BME280;61691;53.072;6.582;2023-04-07T01:23:35;101425.66;;;7.82;82.33
73457;BME280;61691;53.072;6.582;2023-04-07T01:26:25;101430.75;;;7.85;82.02
73457;BME280;61691;53.072;6.582;2023-04-07T01:31:54;101427.34;;;7.83;81.94
73457;BME280;61691;53.072;6.582;2023-04-07T01:34:26;101412.34;;;7.71;81.89
73457;BME280;61691;53.072;6.582;2023-04-07T01:36:56;101413.38;;;7.68;82.32
73457;BME280;61691;53.072;6.582;2023-04-07T01:39:26;101420.59;;;7.79;82.48
73457;BME280;61691;53.072;6.582;2023-04-07T01:41:54;101427.34;;;7.83;82.08
73457;BME280;61691;53.072;6.582;2023-04-07T01:44:21;101400.28;;;7.67;82.29
73457;BME280;61691;53.072;6.582;2023-04-07T01:46:50;101434.31;;;7.84;82.24
73457;BME280;61691;53.072;6.582;2023-04-07T01:49:17;101412.25;;;7.72;82.32
73457;BME280;61691;53.072;6.582;2023-04-07T01:51:45;101431.69;;;7.84;81.90
73457;BME280;61691;53.072;6.582;2023-04-07T01:54:16;101431.78;;;7.83;82.00
73457;BME280;61691;53.072;6.582;2023-04-07T01:56:44;101414.22;;;7.69;82.14
73457;BME280;61691;53.072;6.582;2023-04-07T01:59:10;101425.47;;;7.85;82.20
73457;BME280;61691;53.072;6.582;2023-04-07T02:01:37;101412.03;;;7.75;82.06
73457;BME280;61691;53.072;6.582;2023-04-07T02:06:51;101406.41;;;7.67;82.16
73457;BME280;61691;53.072;6.582;2023-04-07T02:09:20;101432.44;;;7.86;82.32
73457;BME280;61691;53.072;6.582;2023-04-07T02:11:49;101432.63;;;7.83;82.21
73457;BME280;61691;53.072;6.582;2023-04-07T02:14:18;101434.53;;;7.81;82.41
73457;BME280;61691;53.072;6.582;2023-04-07T02:16:47;101423.25;;;7.79;82.03
73457;BME280;61691;53.072;6.582;2023-04-07T02:19:15;101396.69;;;7.68;82.49
73457;BME280;61691;53.072;6.582;2023-04-07T02:21:43;101422.91;;;7.84;82.43
73457;BME280;61691;53.072;6.582;2023-04-07T02:24:11;101429.78;;;7.86;82.59
73457;BME280;61691;53.072;6.582;2023-04-07T02:26:38;101420.28;;;7.84;82.33
73457;BME280;61691;53.072;6.582;2023-04-07T02:29:05;101435.41;;;7.94;82.27
73457;BME280;61691;53.072;6.582;2023-04-07T02:31:32;101432.03;;;7.92;82.68
73457;BME280;61691;53.072;6.582;2023-04-07T02:33:58;101428.84;;;7.87;82.64
73457;BME280;61691;53.072;6.582;2023-04-07T02:36:25;101416.91;;;7.82;82.51
73457;BME280;61691;53.072;6.582;2023-04-07T02:38:53;101418.50;;;7.84;82.72
73457;BME280;61691;53.072;6.582;2023-04-07T02:41:19;101434.66;;;7.92;82.37
73457;BME280;61691;53.072;6.582;2023-04-07T02:43:46;101432.97;;;7.91;82.53
73457;BME280;61691;53.072;6.582;2023-04-07T02:46:13;101440.47;;;7.97;82.17
73457;BME280;61691;53.072;6.582;2023-04-07T02:48:42;101443.94;;;7.98;82.43
73457;BME280;61691;53.072;6.582;2023-04-07T02:51:08;101438.81;;;7.96;82.53
73457;BME280;61691;53.072;6.582;2023-04-07T02:53:35;101404.00;;;7.77;82.13
73457;BME280;61691;53.072;6.582;2023-04-07T02:56:02;101430.56;;;7.88;82.52
73457;BME280;61691;53.072;6.582;2023-04-07T02:58:28;101408.34;;;7.78;82.27
73457;BME280;61691;53.072;6.582;2023-04-07T03:00:55;101442.28;;;7.97;82.69
73457;BME280;61691;53.072;6.582;2023-04-07T03:03:22;101428.00;;;7.87;82.41
73457;BME280;61691;53.072;6.582;2023-04-07T03:05:49;101452.72;;;7.98;82.53
73457;BME280;61691;53.072;6.582;2023-04-07T03:08:15;101435.41;;;7.94;82.59
73457;BME280;61691;53.072;6.582;2023-04-07T03:10:42;101453.13;;;7.92;82.58
73457;BME280;61691;53.072;6.582;2023-04-07T03:13:09;101431.50;;;7.87;82.87
73457;BME280;61691;53.072;6.582;2023-04-07T03:15:38;101447.00;;;7.92;82.85
73457;BME280;61691;53.072;6.582;2023-04-07T03:18:04;101436.03;;;7.85;82.58
73457;BME280;61691;53.072;6.582;2023-04-07T03:20:31;101440.25;;;7.88;82.48
73457;BME280;61691;53.072;6.582;2023-04-07T03:22:58;101434.31;;;7.84;82.31
73457;BME280;61691;53.072;6.582;2023-04-07T03:25:24;101428.09;;;7.85;82.25
73457;BME280;61691;53.072;6.582;2023-04-07T03:27:52;101436.53;;;7.90;82.30
73457;BME280;61691;53.072;6.582;2023-04-07T03:30:19;101444.28;;;7.93;82.92
73457;BME280;61691;53.072;6.582;2023-04-07T03:32:46;101436.69;;;7.89;82.52
73457;BME280;61691;53.072;6.582;2023-04-07T03:35:13;101409.72;;;7.71;82.50
73457;BME280;61691;53.072;6.582;2023-04-07T03:37:39;101444.59;;;7.89;82.41
73457;BME280;61691;53.072;6.582;2023-04-07T03:40:06;101375.34;;;7.46;82.59
73457;BME280;61691;53.072;6.582;2023-04-07T03:42:33;101426.47;;;7.70;83.03
73457;BME280;61691;53.072;6.582;2023-04-07T03:45:00;101452.03;;;7.82;82.73
73457;BME280;61691;53.072;6.582;2023-04-07T03:47:27;101441.91;;;7.76;82.91
73457;BME280;61691;53.072;6.582;2023-04-07T03:49:53;101437.22;;;7.67;83.09
73457;BME280;61691;53.072;6.582;2023-04-07T03:52:20;101431.75;;;7.70;82.74
73457;BME280;61691;53.072;6.582;2023-04-07T03:54:47;101439.59;;;7.71;82.72
73457;BME280;61691;53.072;6.582;2023-04-07T03:57:14;101463.34;;;7.84;83.03
73457;BME280;61691;53.072;6.582;2023-04-07T03:59:40;101466.94;;;7.83;82.70
73457;BME280;61691;53.072;6.582;2023-04-07T04:02:08;101463.69;;;7.80;82.69
73457;BME280;61691;53.072;6.582;2023-04-07T04:04:34;101464.53;;;7.80;83.01
73457;BME280;61691;53.072;6.582;2023-04-07T04:07:01;101466.84;;;7.85;82.96
73457;BME280;61691;53.072;6.582;2023-04-07T04:09:28;101455.84;;;7.78;83.09
73457;BME280;61691;53.072;6.582;2023-04-07T04:11:55;101474.66;;;7.86;82.65
73457;BME280;61691;53.072;6.582;2023-04-07T04:14:22;101477.31;;;7.86;83.20
73457;BME280;61691;53.072;6.582;2023-04-07T04:16:49;101475.09;;;7.80;82.58
73457;BME280;61691;53.072;6.582;2023-04-07T04:19:16;101470.84;;;7.77;82.69
73457;BME280;61691;53.072;6.582;2023-04-07T04:21:42;101451.94;;;7.71;83.02
73457;BME280;61691;53.072;6.582;2023-04-07T04:24:09;101470.94;;;7.76;83.19
73457;BME280;61691;53.072;6.582;2023-04-07T04:26:36;101470.22;;;7.74;83.10
73457;BME280;61691;53.072;6.582;2023-04-07T04:29:02;101481.31;;;7.79;82.95
73457;BME280;61691;53.072;6.582;2023-04-07T04:31:29;101472.00;;;7.73;83.06
73457;BME280;61691;53.072;6.582;2023-04-07T04:33:56;101478.13;;;7.74;83.39
73457;BME280;61691;53.072;6.582;2023-04-07T04:36:22;101426.63;;;7.42;82.71
73457;BME280;61691;53.072;6.582;2023-04-07T04:38:49;101469.88;;;7.66;82.87
73457;BME280;61691;53.072;6.582;2023-04-07T04:41:16;101496.38;;;7.77;83.38
73457;BME280;61691;53.072;6.582;2023-04-07T04:43:43;101504.41;;;7.75;83.28
73457;BME280;61691;53.072;6.582;2023-04-07T04:46:10;101492.47;;;7.70;83.36
73457;BME280;61691;53.072;6.582;2023-04-07T04:48:37;101459.16;;;7.55;83.17
73457;BME280;61691;53.072;6.582;2023-04-07T04:51:03;101499.34;;;7.72;83.20
73457;BME280;61691;53.072;6.582;2023-04-07T04:53:31;101497.72;;;7.70;83.17
73457;BME280;61691;53.072;6.582;2023-04-07T04:55:57;101496.84;;;7.57;83.06
73457;BME280;61691;53.072;6.582;2023-04-07T04:58:24;101507.75;;;7.65;83.17
73457;BME280;61691;53.072;6.582;2023-04-07T05:00:54;101487.41;;;7.53;83.41
73457;BME280;61691;53.072;6.582;2023-04-07T05:03:27;101494.84;;;7.60;83.48
73457;BME280;61691;53.072;6.582;2023-04-07T05:05:54;101493.44;;;7.55;83.06
73457;BME280;61691;53.072;6.582;2023-04-07T05:08:21;101482.53;;;7.47;83.35
73457;BME280;61691;53.072;6.582;2023-04-07T05:10:48;101488.56;;;7.49;83.45
73457;BME280;61691;53.072;6.582;2023-04-07T05:13:15;101510.78;;;7.59;83.10
73457;BME280;61691;53.072;6.582;2023-04-07T05:15:42;101507.41;;;7.57;83.21
73457;BME280;61691;53.072;6.582;2023-04-07T05:18:08;101509.28;;;7.55;83.59
73457;BME280;61691;53.072;6.582;2023-04-07T05:20:35;101502.41;;;7.52;83.08
73457;BME280;61691;53.072;6.582;2023-04-07T05:23:02;101523.78;;;7.62;83.04
73457;BME280;61691;53.072;6.582;2023-04-07T05:25:29;101525.47;;;7.63;83.54
73457;BME280;61691;53.072;6.582;2023-04-07T05:27:57;101528.84;;;7.65;83.42
73457;BME280;61691;53.072;6.582;2023-04-07T05:30:25;101514.25;;;7.59;83.33
73457;BME280;61691;53.072;6.582;2023-04-07T05:32:52;101528.00;;;7.64;83.44
73457;BME280;61691;53.072;6.582;2023-04-07T05:35:19;101465.38;;;7.27;83.05
73457;BME280;61691;53.072;6.582;2023-04-07T05:37:46;101519.66;;;7.58;83.52
73457;BME280;61691;53.072;6.582;2023-04-07T05:40:12;101515.72;;;7.51;83.10
73457;BME280;61691;53.072;6.582;2023-04-07T05:42:40;101513.06;;;7.51;83.40
73457;BME280;61691;53.072;6.582;2023-04-07T05:45:08;101548.28;;;7.64;83.10
73457;BME280;61691;53.072;6.582;2023-04-07T05:47:35;101544.47;;;7.68;83.35
73457;BME280;61691;53.072;6.582;2023-04-07T05:50:01;101520.78;;;7.54;83.20
73457;BME280;61691;53.072;6.582;2023-04-07T05:52:28;101522.69;;;7.52;83.40
73457;BME280;61691;53.072;6.582;2023-04-07T05:54:55;101562.66;;;7.72;83.46
73457;BME280;61691;53.072;6.582;2023-04-07T05:57:22;101536.03;;;7.63;83.00
73457;BME280;61691;53.072;6.582;2023-04-07T05:59:49;101540.91;;;7.69;83.26
73457;BME280;61691;53.072;6.582;2023-04-07T06:02:16;101561.25;;;7.81;83.00
73457;BME280;61691;53.072;6.582;2023-04-07T06:04:42;101559.63;;;7.78;82.99
73457;BME280;61691;53.072;6.582;2023-04-07T06:07:09;101556.53;;;7.72;83.24
73457;BME280;61691;53.072;6.582;2023-04-07T06:09:36;101571.78;;;7.81;83.26
73457;BME280;61691;53.072;6.582;2023-04-07T06:12:03;101569.88;;;7.83;82.97
73457;BME280;61691;53.072;6.582;2023-04-07T06:14:32;101579.09;;;7.90;82.84
73457;BME280;61691;53.072;6.582;2023-04-07T06:16:58;101562.91;;;7.82;83.16
73457;BME280;61691;53.072;6.582;2023-04-07T06:19:25;101547.69;;;7.73;83.07
73457;BME280;61691;53.072;6.582;2023-04-07T06:21:55;101577.22;;;7.92;82.74
73457;BME280;61691;53.072;6.582;2023-04-07T06:24:22;101551.63;;;7.80;83.04
73457;BME280;61691;53.072;6.582;2023-04-07T06:26:53;101572.47;;;7.97;82.73
73457;BME280;61691;53.072;6.582;2023-04-07T06:29:20;101578.50;;;7.99;82.38
73457;BME280;61691;53.072;6.582;2023-04-07T06:31:47;101567.59;;;7.91;82.78
73457;BME280;61691;53.072;6.582;2023-04-07T06:34:14;101592.25;;;8.04;82.65
73457;BME280;61691;53.072;6.582;2023-04-07T06:36:40;101576.53;;;8.03;82.46
73457;BME280;61691;53.072;6.582;2023-04-07T06:39:07;101590.94;;;8.11;82.48
73457;BME280;61691;53.072;6.582;2023-04-07T06:41:34;101559.09;;;8.00;82.31
73457;BME280;61691;53.072;6.582;2023-04-07T06:44:00;101585.31;;;8.16;82.72
73457;BME280;61691;53.072;6.582;2023-04-07T06:46:27;101587.97;;;8.16;82.14
73457;BME280;61691;53.072;6.582;2023-04-07T06:48:54;101585.88;;;8.21;82.60
73457;BME280;61691;53.072;6.582;2023-04-07T06:51:21;101602.16;;;8.28;82.68
73457;BME280;61691;53.072;6.582;2023-04-07T06:53:48;101542.69;;;7.95;82.43
73457;BME280;61691;53.072;6.582;2023-04-07T06:56:15;101584.81;;;8.24;82.62
73457;BME280;61691;53.072;6.582;2023-04-07T06:58:42;101606.25;;;8.33;82.47
73457;BME280;61691;53.072;6.582;2023-04-07T07:01:08;101599.69;;;8.39;82.04
73457;BME280;61691;53.072;6.582;2023-04-07T07:03:35;101599.50;;;8.42;82.04
73457;BME280;61691;53.072;6.582;2023-04-07T07:06:02;101617.25;;;8.52;81.87
73457;BME280;61691;53.072;6.582;2023-04-07T07:08:29;101606.06;;;8.49;81.70
73457;BME280;61691;53.072;6.582;2023-04-07T07:10:56;101613.16;;;8.61;81.71
73457;BME280;61691;53.072;6.582;2023-04-07T07:13:25;101619.19;;;8.63;81.90
73457;BME280;61691;53.072;6.582;2023-04-07T07:15:52;101614.63;;;8.65;81.89
73457;BME280;61691;53.072;6.582;2023-04-07T07:18:19;101593.47;;;8.52;82.13
73457;BME280;61691;53.072;6.582;2023-04-07T07:20:46;101603.34;;;8.63;81.64
73457;BME280;61691;53.072;6.582;2023-04-07T07:23:13;101628.94;;;8.75;81.40
73457;BME280;61691;53.072;6.582;2023-04-07T07:25:39;101632.28;;;8.65;81.45
73457;BME280;61691;53.072;6.582;2023-04-07T07:28:06;101564.81;;;8.34;81.25
73457;BME280;61691;53.072;6.582;2023-04-07T07:30:34;101608.06;;;8.58;81.26
73457;BME280;61691;53.072;6.582;2023-04-07T07:33:01;101625.78;;;8.70;81.19
73457;BME280;61691;53.072;6.582;2023-04-07T07:35:28;101631.69;;;8.74;81.24
73457;BME280;61691;53.072;6.582;2023-04-07T07:37:55;101625.16;;;8.79;81.19
73457;BME280;61691;53.072;6.582;2023-04-07T07:40:22;101645.78;;;8.87;80.84
73457;BME280;61691;53.072;6.582;2023-04-07T07:42:48;101619.53;;;8.71;81.27
73457;BME280;61691;53.072;6.582;2023-04-07T07:45:15;101646.41;;;8.90;80.61
73457;BME280;61691;53.072;6.582;2023-04-07T07:47:45;101648.63;;;8.84;80.80
73457;BME280;61691;53.072;6.582;2023-04-07T07:50:12;101660.91;;;8.85;80.77
73457;BME280;61691;53.072;6.582;2023-04-07T07:52:38;101659.44;;;8.93;80.97
73457;BME280;61691;53.072;6.582;2023-04-07T07:55:05;101662.59;;;8.99;80.72
73457;BME280;61691;53.072;6.582;2023-04-07T07:57:32;101647.78;;;8.83;80.81
73457;BME280;61691;53.072;6.582;2023-04-07T07:59:59;101671.72;;;8.95;80.42
73457;BME280;61691;53.072;6.582;2023-04-07T08:02:25;101623.63;;;8.63;80.23
73457;BME280;61691;53.072;6.582;2023-04-07T08:04:57;101677.19;;;8.91;80.18
73457;BME280;61691;53.072;6.582;2023-04-07T08:07:24;101685.88;;;8.93;80.45
73457;BME280;61691;53.072;6.582;2023-04-07T08:09:51;101659.28;;;8.82;80.37
73457;BME280;61691;53.072;6.582;2023-04-07T08:12:17;101686.06;;;9.03;79.89
73457;BME280;61691;53.072;6.582;2023-04-07T08:14:44;101581.00;;;8.42;80.19
73457;BME280;61691;53.072;6.582;2023-04-07T08:17:11;101688.44;;;9.08;79.89
73457;BME280;61691;53.072;6.582;2023-04-07T08:19:38;101695.00;;;9.15;79.71
73457;BME280;61691;53.072;6.582;2023-04-07T08:22:05;101693.28;;;9.14;79.90
73457;BME280;61691;53.072;6.582;2023-04-07T08:24:31;101696.47;;;9.19;80.05
73457;BME280;61691;53.072;6.582;2023-04-07T08:26:58;101693.41;;;9.25;79.78
73457;BME280;61691;53.072;6.582;2023-04-07T08:29:25;101698.06;;;9.34;80.03
73457;BME280;61691;53.072;6.582;2023-04-07T08:31:52;101702.22;;;9.38;79.40
73457;BME280;61691;53.072;6.582;2023-04-07T08:34:18;101698.38;;;9.42;79.49
73457;BME280;61691;53.072;6.582;2023-04-07T08:36:46;101706.63;;;9.50;79.40
73457;BME280;61691;53.072;6.582;2023-04-07T08:39:13;101701.53;;;9.47;79.08
73457;BME280;61691;53.072;6.582;2023-04-07T08:41:40;101706.44;;;9.53;78.53
73457;BME280;61691;53.072;6.582;2023-04-07T08:44:09;101719.56;;;9.67;78.96
73457;BME280;61691;53.072;6.582;2023-04-07T08:46:39;101704.81;;;9.63;78.67
73457;BME280;61691;53.072;6.582;2023-04-07T08:49:11;101728.66;;;9.76;78.65
73457;BME280;61691;53.072;6.582;2023-04-07T08:51:44;101726.13;;;9.75;78.58
73457;BME280;61691;53.072;6.582;2023-04-07T08:54:14;101729.06;;;9.83;77.98
73457;BME280;61691;53.072;6.582;2023-04-07T08:56:42;101722.59;;;9.87;77.84
73457;BME280;61691;53.072;6.582;2023-04-07T08:59:11;101733.28;;;9.98;78.21
73457;BME280;61691;53.072;6.582;2023-04-07T09:01:39;101693.69;;;9.84;78.19
73457;BME280;61691;53.072;6.582;2023-04-07T09:04:07;101713.97;;;10.08;77.97
73457;BME280;61691;53.072;6.582;2023-04-07T09:06:35;101735.97;;;10.34;78.13
73457;BME280;61691;53.072;6.582;2023-04-07T09:09:02;101730.00;;;10.43;77.63
73457;BME280;61691;53.072;6.582;2023-04-07T09:11:36;101738.00;;;10.55;77.85
73457;BME280;61691;53.072;6.582;2023-04-07T09:14:03;101712.63;;;10.39;77.17
73457;BME280;61691;53.072;6.582;2023-04-07T09:16:30;101735.06;;;10.46;76.68
73457;BME280;61691;53.072;6.582;2023-04-07T09:18:58;101724.63;;;10.32;75.72
73457;BME280;61691;53.072;6.582;2023-04-07T09:21:25;101747.88;;;10.29;75.76
73457;BME280;61691;53.072;6.582;2023-04-07T09:23:52;101748.94;;;10.26;76.34
73457;BME280;61691;53.072;6.582;2023-04-07T09:26:24;101740.22;;;10.24;76.01
73457;BME280;61691;53.072;6.582;2023-04-07T09:28:56;101743.13;;;10.21;75.76
73457;BME280;61691;53.072;6.582;2023-04-07T09:31:44;101743.19;;;10.32;75.93
73457;BME280;61691;53.072;6.582;2023-04-07T09:34:30;101727.53;;;10.29;75.85
73457;BME280;61691;53.072;6.582;2023-04-07T09:36:57;101746.53;;;10.47;75.08
73457;BME280;61691;53.072;6.582;2023-04-07T09:39:24;101736.56;;;10.51;75.19
73457;BME280;61691;53.072;6.582;2023-04-07T09:41:52;101760.00;;;10.68;73.58
73457;BME280;61691;53.072;6.582;2023-04-07T09:44:19;101722.09;;;10.55;74.45
73457;BME280;61691;53.072;6.582;2023-04-07T09:49:16;101713.41;;;10.53;74.74
73457;BME280;61691;53.072;6.582;2023-04-07T09:51:59;101761.31;;;10.86;73.80
73457;BME280;61691;53.072;6.582;2023-04-07T09:57:00;101768.22;;;10.65;73.34
73457;BME280;61691;53.072;6.582;2023-04-07T09:59:29;101733.81;;;10.39;73.77
73457;BME280;61691;53.072;6.582;2023-04-07T10:01:56;101768.66;;;10.59;74.10
73457;BME280;61691;53.072;6.582;2023-04-07T10:04:24;101773.22;;;10.57;73.88
73457;BME280;61691;53.072;6.582;2023-04-07T10:06:52;101751.44;;;10.40;74.03
73457;BME280;61691;53.072;6.582;2023-04-07T10:09:24;101778.72;;;10.54;74.04
73457;BME280;61691;53.072;6.582;2023-04-07T10:11:52;101775.56;;;10.48;73.37
73457;BME280;61691;53.072;6.582;2023-04-07T10:14:22;101783.03;;;10.43;73.74
73457;BME280;61691;53.072;6.582;2023-04-07T10:16:50;101773.38;;;10.42;73.96
73457;BME280;61691;53.072;6.582;2023-04-07T10:19:18;101754.19;;;10.39;73.73
73457;BME280;61691;53.072;6.582;2023-04-07T10:21:46;101762.22;;;10.50;74.03
73457;BME280;61691;53.072;6.582;2023-04-07T10:27:08;101779.38;;;10.81;73.39
73457;BME280;61691;53.072;6.582;2023-04-07T10:29:40;101779.28;;;10.82;73.30
73457;BME280;61691;53.072;6.582;2023-04-07T10:32:08;101787.56;;;10.78;72.83
73457;BME280;61691;53.072;6.582;2023-04-07T10:37:20;101792.47;;;10.71;72.78
73457;BME280;61691;53.072;6.582;2023-04-07T10:39:49;101789.47;;;10.76;72.66
73457;BME280;61691;53.072;6.582;2023-04-07T10:45:08;101786.03;;;10.86;72.62
73457;BME280;61691;53.072;6.582;2023-04-07T10:50:24;101800.28;;;11.20;72.81
73457;BME280;61691;53.072;6.582;2023-04-07T10:53:08;101804.44;;;11.36;72.23
73457;BME280;61691;53.072;6.582;2023-04-07T10:55:45;101794.56;;;11.38;72.29
73457;BME280;61691;53.072;6.582;2023-04-07T11:01:15;101788.50;;;11.36;70.91
73457;BME280;61691;53.072;6.582;2023-04-07T11:03:32;101809.91;;;11.45;71.02
73457;BME280;61691;53.072;6.582;2023-04-07T11:06:03;101805.53;;;11.44;70.83
73457;BME280;61691;53.072;6.582;2023-04-07T11:08:44;101816.16;;;11.44;70.53
73457;BME280;61691;53.072;6.582;2023-04-07T11:11:20;101819.44;;;11.48;70.98
73457;BME280;61691;53.072;6.582;2023-04-07T11:13:59;101794.06;;;11.33;69.84
73457;BME280;61691;53.072;6.582;2023-04-07T11:16:35;101817.28;;;11.53;69.42
73457;BME280;61691;53.072;6.582;2023-04-07T11:19:02;101794.34;;;11.52;70.44
73457;BME280;61691;53.072;6.582;2023-04-07T11:21:29;101812.00;;;11.64;69.70
73457;BME280;61691;53.072;6.582;2023-04-07T11:23:55;101819.25;;;11.73;69.77
73457;BME280;61691;53.072;6.582;2023-04-07T11:26:22;101798.97;;;11.61;69.83
73457;BME280;61691;53.072;6.582;2023-04-07T11:28:54;101827.06;;;11.87;69.18
73457;BME280;61691;53.072;6.582;2023-04-07T11:33:53;101811.53;;;11.70;68.95
73457;BME280;61691;53.072;6.582;2023-04-07T11:36:30;101837.44;;;11.90;67.93
73457;BME280;61691;53.072;6.582;2023-04-07T11:38:58;101830.19;;;11.92;68.83
73457;BME280;61691;53.072;6.582;2023-04-07T11:41:27;101824.53;;;11.86;68.32
73457;BME280;61691;53.072;6.582;2023-04-07T11:44:07;101823.91;;;11.82;67.19
73457;BME280;61691;53.072;6.582;2023-04-07T11:46:35;101833.81;;;11.91;67.21
73457;BME280;61691;53.072;6.582;2023-04-07T11:49:28;101822.81;;;11.85;67.29
73457;BME280;61691;53.072;6.582;2023-04-07T11:52:04;101845.53;;;12.00;66.99
73457;BME280;61691;53.072;6.582;2023-04-07T11:54:45;101845.69;;;12.10;66.89
73457;BME280;61691;53.072;6.582;2023-04-07T11:57:26;101853.41;;;12.13;66.37
73457;BME280;61691;53.072;6.582;2023-04-07T12:00:10;101848.09;;;12.13;65.75
73457;BME280;61691;53.072;6.582;2023-04-07T12:02:37;101826.47;;;12.06;66.52
73457;BME280;61691;53.072;6.582;2023-04-07T12:05:05;101846.41;;;12.23;66.41
73457;BME280;61691;53.072;6.582;2023-04-07T12:07:32;101840.00;;;12.25;66.15
73457;BME280;61691;53.072;6.582;2023-04-07T12:10:19;101862.09;;;12.48;65.45
73457;BME280;61691;53.072;6.582;2023-04-07T12:12:47;101858.00;;;12.55;65.56
73457;BME280;61691;53.072;6.582;2023-04-07T12:15:14;101844.78;;;12.65;65.23
73457;BME280;61691;53.072;6.582;2023-04-07T12:17:46;101854.09;;;12.82;65.28
73457;BME280;61691;53.072;6.582;2023-04-07T12:20:14;101868.34;;;12.92;64.83
73457;BME280;61691;53.072;6.582;2023-04-07T12:22:41;101854.31;;;12.90;64.89
73457;BME280;61691;53.072;6.582;2023-04-07T12:25:08;101829.41;;;12.79;64.14
73457;BME280;61691;53.072;6.582;2023-04-07T12:27:35;101846.34;;;12.78;63.33
73457;BME280;61691;53.072;6.582;2023-04-07T12:30:10;101830.28;;;12.69;62.71
73457;BME280;61691;53.072;6.582;2023-04-07T12:32:38;101871.94;;;13.02;62.77
73457;BME280;61691;53.072;6.582;2023-04-07T12:35:05;101845.34;;;12.91;62.10
73457;BME280;61691;53.072;6.582;2023-04-07T12:37:32;101841.00;;;12.90;61.88
73457;BME280;61691;53.072;6.582;2023-04-07T12:39:59;101830.31;;;13.01;62.40
73457;BME280;61691;53.072;6.582;2023-04-07T12:42:26;101864.88;;;13.23;61.60
73457;BME280;61691;53.072;6.582;2023-04-07T12:44:53;101840.94;;;13.12;61.01
73457;BME280;61691;53.072;6.582;2023-04-07T12:47:20;101863.31;;;13.21;60.84
73457;BME280;61691;53.072;6.582;2023-04-07T12:49:47;101882.31;;;13.16;60.12
73457;BME280;61691;53.072;6.582;2023-04-07T12:52:15;101857.78;;;13.01;59.67
73457;BME280;61691;53.072;6.582;2023-04-07T12:54:42;101857.78;;;13.01;60.21
73457;BME280;61691;53.072;6.582;2023-04-07T12:57:11;101872.78;;;13.13;59.96
73457;BME280;61691;53.072;6.582;2023-04-07T12:59:37;101862.72;;;13.17;59.86
73457;BME280;61691;53.072;6.582;2023-04-07T13:02:04;101862.47;;;13.20;59.08
73457;BME280;61691;53.072;6.582;2023-04-07T13:04:32;101838.06;;;13.15;59.75
73457;BME280;61691;53.072;6.582;2023-04-07T13:06:59;101871.56;;;13.49;59.58
73457;BME280;61691;53.072;6.582;2023-04-07T13:09:28;101863.31;;;13.52;59.27
73457;BME280;61691;53.072;6.582;2023-04-07T13:11:54;101860.91;;;13.49;57.75
73457;BME280;61691;53.072;6.582;2023-04-07T13:14:23;101838.22;;;13.34;58.16
73457;BME280;61691;53.072;6.582;2023-04-07T13:16:50;101868.13;;;13.59;58.17
73457;BME280;61691;53.072;6.582;2023-04-07T13:19:17;101848.19;;;13.53;58.45
73457;BME280;61691;53.072;6.582;2023-04-07T13:21:43;101824.13;;;13.43;57.67
73457;BME280;61691;53.072;6.582;2023-04-07T13:24:14;101874.19;;;13.81;57.99
73457;BME280;61691;53.072;6.582;2023-04-07T13:26:41;101879.84;;;13.88;57.60
73457;BME280;61691;53.072;6.582;2023-04-07T13:29:08;101868.84;;;13.81;56.85
73457;BME280;61691;53.072;6.582;2023-04-07T13:31:35;101865.13;;;13.73;56.45
73457;BME280;61691;53.072;6.582;2023-04-07T13:34:02;101858.13;;;13.72;56.65